Time;durP1;ratioP1;P1;durP2;ratioP2;P2;SDS_P1;SDS_P2;PMS_P1;PMS_P2;Temp;Humidity;BMP_temperature;BMP_pressure;BME280_temperature;BME280_humidity;BME280_pressure;Samples;Min_cycle;Max_cycle;Signal;HPM_P1;HPM_P2
2022/07/05 00:00:33;;;;;;;3.83;2.70;;;12.90;99.90;;;;;;5057030;28;20067;-68
2022/07/05 00:02:59;;;;;;;3.63;2.95;;;12.90;99.90;;;;;;5058782;28;20070;-68
2022/07/05 00:05:24;;;;;;;4.47;2.50;;;12.90;99.90;;;;;;5056253;28;20045;-68
2022/07/05 00:07:50;;;;;;;4.88;2.70;;;12.80;99.90;;;;;;5075783;28;20041;-68
2022/07/05 00:10:16;;;;;;;4.95;3.20;;;12.90;99.90;;;;;;5060530;28;20045;-68
2022/07/05 00:12:42;;;;;;;6.82;3.03;;;13.00;99.90;;;;;;5073525;28;20182;-68
2022/07/05 00:15:08;;;;;;;3.67;2.67;;;12.90;99.90;;;;;;5072051;28;20048;-68
2022/07/05 00:17:34;;;;;;;3.50;2.45;;;12.90;99.90;;;;;;5058326;28;20080;-68
2022/07/05 00:19:59;;;;;;;6.20;2.78;;;12.80;99.90;;;;;;5053358;28;20051;-68
2022/07/05 00:22:25;;;;;;;4.50;3.00;;;12.90;99.90;;;;;;5058144;28;20404;-68
2022/07/05 00:24:51;;;;;;;3.53;3.17;;;12.90;99.90;;;;;;5055821;28;20131;-68
2022/07/05 00:27:16;;;;;;;4.05;3.38;;;12.70;99.90;;;;;;5056746;28;20041;-68
2022/07/05 00:29:42;;;;;;;5.82;3.45;;;12.70;99.90;;;;;;5051958;28;20086;-68
2022/07/05 00:32:08;;;;;;;4.20;3.28;;;12.70;99.90;;;;;;5075256;28;20055;-68
2022/07/05 00:34:34;;;;;;;3.33;3.03;;;12.50;99.90;;;;;;5057298;28;20033;-68
2022/07/05 00:37:00;;;;;;;6.55;3.70;;;12.60;99.90;;;;;;5075073;28;20045;-68
2022/07/05 00:39:26;;;;;;;6.78;4.38;;;12.60;99.90;;;;;;5074307;28;20041;-68
2022/07/05 00:41:53;;;;;;;3.63;3.15;;;12.50;99.90;;;;;;5056316;28;20045;-68
2022/07/05 00:44:37;;;;;;;4.93;2.95;;;12.40;99.90;;;;;;5055215;28;20070;-68
2022/07/05 00:47:07;;;;;;;5.57;3.40;;;12.50;99.90;;;;;;5080016;28;20048;-68
2022/07/05 00:49:34;;;;;;;6.47;3.65;;;12.50;99.90;;;;;;5056315;28;20540;-68
2022/07/05 00:52:00;;;;;;;4.72;4.05;;;12.40;99.90;;;;;;5056944;28;20104;-68
2022/07/05 00:54:28;;;;;;;6.50;3.92;;;12.30;99.90;;;;;;5076225;28;20052;-68
2022/07/05 00:56:55;;;;;;;5.57;4.13;;;12.20;99.90;;;;;;5068763;28;20476;-68
2022/07/05 00:59:20;;;;;;;5.28;4.00;;;12.20;99.90;;;;;;5058163;28;20071;-68
2022/07/05 01:01:46;;;;;;;6.35;4.25;;;12.30;99.90;;;;;;5078518;28;20052;-68
2022/07/05 01:04:12;;;;;;;7.35;4.18;;;12.30;99.90;;;;;;5061659;28;20045;-68
2022/07/05 01:06:39;;;;;;;6.07;4.10;;;12.40;99.90;;;;;;5076374;28;20041;-68
2022/07/05 01:09:05;;;;;;;4.93;4.00;;;12.50;99.90;;;;;;5056533;28;20044;-68
2022/07/05 01:11:31;;;;;;;5.57;4.03;;;12.50;99.90;;;;;;5082158;28;20041;-68
2022/07/05 01:14:00;;;;;;;4.38;3.70;;;12.50;99.90;;;;;;5057097;28;20049;-68
2022/07/05 01:16:26;;;;;;;8.20;3.60;;;12.50;99.90;;;;;;5061038;28;20123;-68
2022/07/05 01:18:52;;;;;;;3.75;3.33;;;12.40;99.90;;;;;;5081243;28;20052;-68
2022/07/05 01:21:21;;;;;;;4.95;3.92;;;12.30;99.90;;;;;;5078341;28;20048;-68
2022/07/05 01:23:47;;;;;;;4.13;3.72;;;12.20;99.90;;;;;;5076330;28;20056;-67
2022/07/05 01:26:13;;;;;;;4.07;3.63;;;12.20;99.90;;;;;;5075876;28;20041;-68
2022/07/05 01:28:38;;;;;;;7.28;4.20;;;12.20;99.90;;;;;;5065120;28;20045;-68
2022/07/05 01:31:04;;;;;;;5.97;4.13;;;12.10;99.90;;;;;;5085828;28;20071;-68
2022/07/05 01:33:31;;;;;;;8.27;4.78;;;12.00;99.90;;;;;;5056021;28;20048;-68
2022/07/05 01:35:57;;;;;;;6.32;4.15;;;12.00;99.90;;;;;;5078743;28;20406;-68
2022/07/05 01:38:25;;;;;;;6.38;3.90;;;12.10;99.90;;;;;;5080976;28;20024;-67
2022/07/05 01:40:51;;;;;;;5.20;4.18;;;12.10;99.90;;;;;;5060558;28;20049;-68
2022/07/05 01:43:22;;;;;;;6.70;4.40;;;12.00;99.90;;;;;;5077631;28;20047;-67
2022/07/05 01:45:48;;;;;;;4.68;3.70;;;12.00;99.90;;;;;;5079757;28;20457;-68
2022/07/05 01:48:16;;;;;;;5.00;3.97;;;12.00;99.90;;;;;;5061272;28;20130;-67
2022/07/05 01:50:58;;;;;;;5.38;4.15;;;11.90;99.90;;;;;;5078142;28;20052;-68
2022/07/05 01:53:28;;;;;;;6.68;4.32;;;12.00;99.90;;;;;;5059759;28;20087;-67
2022/07/05 01:55:56;;;;;;;8.00;4.82;;;11.80;99.90;;;;;;5077391;28;20037;-68
2022/07/05 01:58:24;;;;;;;7.07;4.72;;;11.70;99.90;;;;;;5068328;28;20048;-68
2022/07/05 02:00:53;;;;;;;5.13;4.60;;;11.70;99.90;;;;;;5061927;28;20041;-68
2022/07/05 02:03:19;;;;;;;5.88;4.65;;;11.70;99.90;;;;;;5075303;28;20128;-68
2022/07/05 02:05:46;;;;;;;8.52;4.90;;;11.80;99.90;;;;;;5059603;28;20040;-67
2022/07/05 02:08:13;;;;;;;6.20;4.60;;;11.80;99.90;;;;;;5059120;28;20055;-67
2022/07/05 02:10:40;;;;;;;5.25;4.53;;;11.70;99.90;;;;;;5078125;28;20040;-67
2022/07/05 02:13:07;;;;;;;5.97;4.65;;;11.70;99.90;;;;;;5061657;28;20052;-68
2022/07/05 02:15:37;;;;;;;8.93;4.80;;;11.70;99.90;;;;;;5080096;28;20163;-67
2022/07/05 02:18:04;;;;;;;6.15;4.95;;;11.80;99.90;;;;;;5054679;28;20064;-68
2022/07/05 02:20:31;;;;;;;6.82;5.18;;;11.80;99.90;;;;;;5063845;28;20037;-68
2022/07/05 02:22:57;;;;;;;5.88;4.95;;;11.80;99.90;;;;;;5060037;28;20091;-68
2022/07/05 02:25:23;;;;;;;7.63;5.25;;;11.90;99.90;;;;;;5081380;28;20047;-67
2022/07/05 02:27:50;;;;;;;5.70;5.00;;;11.90;99.90;;;;;;5062748;28;20123;-67
2022/07/05 02:30:16;;;;;;;5.38;4.30;;;11.90;99.90;;;;;;5054292;28;20049;-68
2022/07/05 02:32:42;;;;;;;5.28;4.18;;;11.80;99.90;;;;;;5075296;28;20457;-68
2022/07/05 02:35:09;;;;;;;6.20;4.57;;;11.60;99.90;;;;;;5073873;28;20051;-67
2022/07/05 02:37:35;;;;;;;7.18;5.15;;;11.40;99.90;;;;;;5055834;28;20064;-67
2022/07/05 02:40:01;;;;;;;6.70;6.00;;;11.40;99.90;;;;;;5058153;28;20078;-67
2022/07/05 02:42:27;;;;;;;6.05;5.45;;;11.50;99.90;;;;;;5052970;28;20052;-67
2022/07/05 02:44:53;;;;;;;7.47;5.03;;;11.40;99.90;;;;;;5078385;28;20040;-67
2022/07/05 02:47:18;;;;;;;5.22;4.72;;;11.20;99.90;;;;;;5078704;28;20041;-68
2022/07/05 02:49:44;;;;;;;5.65;4.85;;;11.20;99.90;;;;;;5060577;28;20041;-68
2022/07/05 02:52:10;;;;;;;8.73;6.32;;;11.20;99.90;;;;;;5077752;28;20486;-67
2022/07/05 02:54:36;;;;;;;10.30;6.30;;;11.20;99.90;;;;;;5058250;28;20048;-67
2022/07/05 02:57:02;;;;;;;6.45;5.85;;;11.10;99.90;;;;;;5091504;28;20445;-67
2022/07/05 02:59:27;;;;;;;9.05;6.28;;;11.00;99.90;;;;;;5057375;28;20052;-67
2022/07/05 03:01:53;;;;;;;8.52;6.78;;;11.10;99.90;;;;;;5056728;28;20063;-67
2022/07/05 03:04:19;;;;;;;6.47;5.60;;;11.10;99.90;;;;;;5058626;28;20052;-67
2022/07/05 03:06:45;;;;;;;7.90;7.10;;;11.20;99.90;;;;;;5092029;28;20534;-67
2022/07/05 03:09:10;;;;;;;8.68;6.43;;;11.20;99.90;;;;;;5075694;28;20048;-67
2022/07/05 03:11:36;;;;;;;8.80;7.00;;;11.20;99.90;;;;;;5054016;28;20059;-67
2022/07/05 03:14:02;;;;;;;9.82;7.20;;;11.30;99.90;;;;;;5074306;28;20048;-67
2022/07/05 03:16:29;;;;;;;9.75;7.00;;;11.40;99.90;;;;;;5076108;28;20044;-68
2022/07/05 03:18:55;;;;;;;9.10;8.13;;;11.40;99.90;;;;;;5090327;28;20127;-67
2022/07/05 03:21:21;;;;;;;10.43;8.13;;;11.40;99.90;;;;;;5053151;28;20067;-67
2022/07/05 03:23:47;;;;;;;10.52;8.20;;;11.30;99.90;;;;;;5057781;28;20048;-67
2022/07/05 03:26:13;;;;;;;9.48;8.25;;;11.30;99.90;;;;;;5058111;28;20101;-67
2022/07/05 03:28:39;;;;;;;10.57;8.40;;;11.40;99.90;;;;;;5053154;28;20049;-67
2022/07/05 03:31:05;;;;;;;9.55;8.55;;;11.40;99.90;;;;;;5055892;28;20049;-67
2022/07/05 03:33:30;;;;;;;12.02;8.43;;;11.40;99.90;;;;;;5067773;28;20048;-67
2022/07/05 03:35:57;;;;;;;14.77;9.45;;;11.40;99.90;;;;;;5072801;28;20037;-67
2022/07/05 03:38:23;;;;;;;11.00;8.75;;;11.40;99.90;;;;;;5091246;28;20083;-68
2022/07/05 03:40:48;;;;;;;11.70;8.35;;;11.40;99.90;;;;;;5086643;28;20037;-67
2022/07/05 03:43:14;;;;;;;10.50;8.82;;;11.40;99.90;;;;;;5075518;28;20051;-67
2022/07/05 03:45:40;;;;;;;10.73;8.35;;;11.40;99.90;;;;;;5079569;28;20048;-67
2022/07/05 03:48:05;;;;;;;10.68;8.25;;;11.40;99.90;;;;;;5071627;28;20045;-67
2022/07/05 03:50:31;;;;;;;9.93;7.97;;;11.40;99.90;;;;;;5069987;28;20048;-67
2022/07/05 03:52:57;;;;;;;10.70;7.47;;;11.40;99.90;;;;;;5058863;28;20412;-67
2022/07/05 03:55:23;;;;;;;9.40;8.10;;;11.40;99.90;;;;;;5053495;28;20071;-67
2022/07/05 03:57:48;;;;;;;9.25;8.15;;;11.50;99.90;;;;;;5079293;28;20043;-67
2022/07/05 04:00:14;;;;;;;11.38;9.10;;;11.40;99.90;;;;;;5055577;28;20036;-67
2022/07/05 04:02:41;;;;;;;14.00;9.10;;;11.50;99.90;;;;;;5054232;28;20124;-67
2022/07/05 04:05:07;;;;;;;10.15;8.60;;;11.40;99.90;;;;;;5092757;28;20048;-67
2022/07/05 04:07:33;;;;;;;10.00;8.93;;;11.50;99.90;;;;;;5057942;28;20041;-67
2022/07/05 04:09:59;;;;;;;14.95;10.18;;;11.60;99.90;;;;;;5071769;28;20037;-67
2022/07/05 04:12:25;;;;;;;11.98;10.13;;;11.70;99.90;;;;;;5073472;28;20118;-67
2022/07/05 04:14:51;;;;;;;12.07;9.57;;;11.80;99.90;;;;;;5050925;28;20110;-67
2022/07/05 04:17:17;;;;;;;14.38;9.88;;;11.80;99.90;;;;;;5055564;28;20053;-67
2022/07/05 04:19:43;;;;;;;10.85;8.98;;;11.80;99.90;;;;;;5055526;28;20060;-67
2022/07/05 04:22:09;;;;;;;11.23;9.52;;;11.90;99.90;;;;;;5057269;28;20056;-67
2022/07/05 04:25:16;;;;;;;13.02;10.23;;;12.00;99.90;;;;;;5078167;28;20080;-67
2022/07/05 04:27:20;;;;;;;14.20;11.10;;;12.10;99.90;;;;;;5059859;28;20053;-67
2022/07/05 04:29:46;;;;;;;16.15;11.13;;;12.10;99.90;;;;;;5057522;28;20103;-67
2022/07/05 04:32:12;;;;;;;12.95;10.07;;;12.20;99.90;;;;;;5061211;28;20066;-67
2022/07/05 04:34:37;;;;;;;13.73;10.95;;;12.30;99.90;;;;;;5065618;28;20484;-67
2022/07/05 04:37:03;;;;;;;12.98;9.65;;;12.40;99.90;;;;;;5064265;28;20515;-67
2022/07/05 04:39:29;;;;;;;11.82;9.70;;;12.50;99.90;;;;;;5065755;28;20644;-67
2022/07/05 04:41:54;;;;;;;12.20;10.90;;;12.50;99.90;;;;;;5083284;28;20063;-67
2022/07/05 04:44:20;;;;;;;13.05;10.80;;;12.50;99.90;;;;;;5087829;28;20510;-67
2022/07/05 04:46:46;;;;;;;15.68;11.15;;;12.60;99.90;;;;;;5069658;28;20099;-67
2022/07/05 04:49:11;;;;;;;12.88;10.57;;;12.60;99.90;;;;;;5069641;28;20083;-67
2022/07/05 04:51:37;;;;;;;12.82;10.90;;;12.70;99.90;;;;;;5087725;28;20045;-67
2022/07/05 04:54:03;;;;;;;13.48;11.32;;;12.70;99.90;;;;;;5069584;28;20056;-67
2022/07/05 04:56:28;;;;;;;13.35;11.05;;;12.80;99.90;;;;;;5085443;28;20040;-67
2022/07/05 04:58:54;;;;;;;12.15;10.90;;;12.80;99.90;;;;;;5085489;28;20044;-67
2022/07/05 05:01:20;;;;;;;18.85;13.02;;;12.80;99.90;;;;;;5087622;28;20047;-67
2022/07/05 05:03:45;;;;;;;14.90;11.95;;;12.90;99.90;;;;;;5066192;28;20075;-67
2022/07/05 05:06:13;;;;;;;14.15;11.52;;;13.00;99.90;;;;;;5070269;28;20505;-67
2022/07/05 05:08:39;;;;;;;13.68;9.98;;;13.10;99.90;;;;;;5087432;28;20057;-67
2022/07/05 05:11:05;;;;;;;14.63;11.05;;;13.10;99.90;;;;;;5084810;28;20048;-66
2022/07/05 05:13:31;;;;;;;11.68;10.48;;;13.10;99.90;;;;;;5069658;28;20450;-66
2022/07/05 05:15:56;;;;;;;12.85;10.05;;;13.20;99.90;;;;;;5049834;28;20036;-68
2022/07/05 05:18:26;;;;;;;15.70;10.65;;;13.20;99.90;;;;;;5069888;28;20037;-66
2022/07/05 05:20:54;;;;;;;15.50;10.32;;;13.30;99.90;;;;;;5081534;28;20048;-66
2022/07/05 05:23:21;;;;;;;15.00;10.63;;;13.30;99.90;;;;;;5039418;28;20061;-67
2022/07/05 05:25:47;;;;;;;11.70;10.10;;;13.30;99.90;;;;;;5040199;28;20049;-67
2022/07/05 05:28:13;;;;;;;14.98;10.68;;;13.30;99.90;;;;;;5038039;28;20132;-66
2022/07/05 05:30:39;;;;;;;12.82;9.88;;;13.40;99.90;;;;;;5037564;28;20049;-67
2022/07/05 05:33:04;;;;;;;11.90;10.55;;;13.50;99.90;;;;;;5039710;28;20063;-68
2022/07/05 05:35:30;;;;;;;11.93;9.60;;;13.50;99.90;;;;;;5045748;28;20096;-68
2022/07/05 05:37:56;;;;;;;17.45;10.02;;;13.60;99.90;;;;;;5044736;28;20044;-67
2022/07/05 05:40:23;;;;;;;12.73;10.68;;;13.70;99.90;;;;;;5044578;28;20048;-67
2022/07/05 05:42:50;;;;;;;14.75;11.35;;;13.80;99.90;;;;;;5055743;28;20050;-67
2022/07/05 05:45:16;;;;;;;13.50;10.82;;;13.90;99.90;;;;;;5056035;28;20049;-67
2022/07/05 05:47:46;;;;;;;11.93;10.73;;;14.00;99.90;;;;;;5039325;28;20137;-67
2022/07/05 05:50:11;;;;;;;13.23;9.77;;;14.10;99.90;;;;;;5061463;28;20095;-67
2022/07/05 05:52:37;;;;;;;11.00;9.48;;;14.20;99.90;;;;;;5043149;28;20506;-67
2022/07/05 05:55:05;;;;;;;14.10;8.73;;;14.30;99.90;;;;;;5030050;28;20045;-67
2022/07/05 05:57:33;;;;;;;12.55;8.88;;;14.30;99.90;;;;;;5044685;28;20053;-67
2022/07/05 05:59:59;;;;;;;14.48;10.10;;;14.30;99.90;;;;;;5041449;28;20080;-66
2022/07/05 06:02:25;;;;;;;15.98;10.05;;;14.40;99.90;;;;;;5045677;28;20061;-66
2022/07/05 06:04:50;;;;;;;12.38;9.27;;;14.40;99.90;;;;;;5039855;28;20045;-65
2022/07/05 06:07:16;;;;;;;11.98;9.27;;;14.50;99.90;;;;;;5061736;28;20041;-65
2022/07/05 06:09:42;;;;;;;9.18;8.10;;;14.60;99.90;;;;;;5044813;28;20054;-65
2022/07/05 06:12:08;;;;;;;7.20;6.45;;;14.60;99.90;;;;;;5060434;28;20124;-65
2022/07/05 06:14:33;;;;;;;14.02;7.65;;;14.80;99.90;;;;;;5045180;28;20045;-65
2022/07/05 06:16:59;;;;;;;9.30;6.80;;;14.90;99.90;;;;;;5052882;28;20087;-65
2022/07/05 06:19:24;;;;;;;10.40;7.72;;;14.90;99.90;;;;;;5044912;28;20049;-66
2022/07/05 06:21:50;;;;;;;7.75;6.55;;;15.00;99.90;;;;;;5049791;28;20057;-65
2022/07/05 06:24:16;;;;;;;10.98;7.03;;;15.10;99.90;;;;;;5062254;28;20084;-65
2022/07/05 06:26:41;;;;;;;10.30;5.28;;;15.20;99.90;;;;;;5064593;28;20037;-65
2022/07/05 06:29:07;;;;;;;9.98;7.35;;;15.30;99.90;;;;;;5063682;28;20071;-66
2022/07/05 06:31:33;;;;;;;9.45;4.68;;;15.30;99.90;;;;;;5063863;28;20136;-65
2022/07/05 06:33:58;;;;;;;7.30;5.80;;;15.40;99.90;;;;;;5065610;28;20048;-66
2022/07/05 06:36:24;;;;;;;8.52;6.28;;;15.50;99.90;;;;;;5063218;28;20052;-65
2022/07/05 06:38:50;;;;;;;8.18;4.90;;;15.60;99.90;;;;;;5062598;28;20112;-66
2022/07/05 06:41:15;;;;;;;5.10;4.13;;;15.70;99.90;;;;;;5061164;28;20036;-66
2022/07/05 06:43:41;;;;;;;10.05;4.53;;;15.70;99.90;;;;;;5065939;28;20087;-65
2022/07/05 06:46:07;;;;;;;6.85;4.00;;;15.80;99.90;;;;;;5063356;28;20040;-68
2022/07/05 06:48:32;;;;;;;7.50;4.65;;;15.90;99.90;;;;;;5061120;28;20129;-67
2022/07/05 06:50:58;;;;;;;6.10;4.13;;;15.90;99.90;;;;;;5063751;28;20048;-70
2022/07/05 06:53:24;;;;;;;6.25;3.65;;;16.00;99.90;;;;;;5065436;28;20040;-67
2022/07/05 06:55:50;;;;;;;6.88;3.20;;;16.10;99.90;;;;;;5057238;28;20048;-67
2022/07/05 06:58:16;;;;;;;5.68;3.20;;;16.20;99.90;;;;;;5064642;28;20489;-67
2022/07/05 07:00:43;;;;;;;4.53;2.63;;;16.30;99.90;;;;;;5063074;28;20053;-67
2022/07/05 07:03:08;;;;;;;6.82;2.72;;;16.30;99.90;;;;;;5064543;28;20040;-67
2022/07/05 07:05:34;;;;;;;13.35;3.05;;;16.40;99.90;;;;;;5062682;28;20056;-67
2022/07/05 07:10:44;;;;;;;4.22;2.13;;;16.50;99.90;;;;;;5065043;28;20053;-67
2022/07/05 07:13:10;;;;;;;6.90;2.75;;;16.70;99.90;;;;;;5063929;28;20053;-67
2022/07/05 07:15:37;;;;;;;5.38;2.10;;;16.70;99.90;;;;;;5062633;28;20045;-67
2022/07/05 07:18:03;;;;;;;4.03;1.60;;;16.70;99.90;;;;;;5062676;28;20041;-67
2022/07/05 07:20:29;;;;;;;4.03;1.63;;;16.80;99.90;;;;;;5063703;28;20091;-67
2022/07/05 07:22:55;;;;;;;3.42;1.60;;;17.00;99.90;;;;;;5057902;28;20060;-67
2022/07/05 07:25:23;;;;;;;6.70;1.70;;;17.00;99.90;;;;;;5063775;28;20071;-67
2022/07/05 07:27:51;;;;;;;4.47;1.27;;;17.30;99.90;;;;;;5062496;28;20559;-67
2022/07/05 07:30:19;;;;;;;6.43;1.48;;;17.40;99.90;;;;;;5055646;28;20052;-67
2022/07/05 07:32:45;;;;;;;7.85;1.90;;;17.70;99.90;;;;;;5061421;28;20057;-67
2022/07/05 07:35:12;;;;;;;3.15;1.45;;;17.80;99.90;;;;;;5062561;28;20048;-67
2022/07/05 07:37:38;;;;;;;3.80;1.88;;;17.80;99.90;;;;;;5058340;28;20051;-67
2022/07/05 07:40:05;;;;;;;3.25;1.40;;;17.80;99.90;;;;;;5063925;28;20045;-67
2022/07/05 07:42:31;;;;;;;2.40;1.50;;;17.80;99.90;;;;;;5062570;28;20058;-67
2022/07/05 07:44:56;;;;;;;4.50;1.52;;;17.60;99.90;;;;;;5062892;28;20052;-67
2022/07/05 07:47:22;;;;;;;5.47;1.75;;;17.50;99.90;;;;;;5063547;28;20037;-67
2022/07/05 07:49:48;;;;;;;4.90;1.50;;;17.50;99.90;;;;;;5062584;28;20052;-67
2022/07/05 07:52:15;;;;;;;5.35;1.40;;;17.50;99.90;;;;;;5064761;28;20409;-68
2022/07/05 07:54:40;;;;;;;3.20;1.55;;;17.60;99.90;;;;;;5080102;28;20100;-67
2022/07/05 07:57:06;;;;;;;5.63;1.30;;;17.70;99.90;;;;;;5062037;28;20130;-67
2022/07/05 07:59:32;;;;;;;5.95;1.42;;;17.70;99.90;;;;;;5050797;28;20052;-67
2022/07/05 08:01:58;;;;;;;5.10;1.50;;;17.70;99.90;;;;;;5073717;28;20098;-67
2022/07/05 08:04:23;;;;;;;4.50;1.30;;;17.70;99.90;;;;;;5068574;28;20052;-67
2022/07/05 08:06:49;;;;;;;3.50;1.33;;;17.80;99.90;;;;;;5072555;28;20083;-67
2022/07/05 08:09:15;;;;;;;6.82;1.48;;;17.90;99.90;;;;;;5072911;28;20112;-67
2022/07/05 08:11:41;;;;;;;3.13;1.20;;;18.00;99.90;;;;;;5063637;28;20039;-67
2022/07/05 08:14:06;;;;;;;2.67;1.58;;;18.20;99.90;;;;;;5057903;28;20843;-67
2022/07/05 08:16:33;;;;;;;3.60;1.25;;;18.30;99.90;;;;;;5051271;28;20041;-67
2022/07/05 08:21:43;;;;;;;5.50;1.67;;;18.30;99.90;;;;;;5059175;28;20057;-67
2022/07/05 08:24:11;;;;;;;4.55;1.58;;;18.10;99.90;;;;;;5021085;28;20133;-67
2022/07/05 08:26:38;;;;;;;3.10;1.55;;;18.10;99.90;;;;;;5035748;28;20366;-67
2022/07/05 08:29:07;;;;;;;5.05;1.67;;;18.20;99.90;;;;;;5050343;28;20485;-67
2022/07/05 08:31:38;;;;;;;3.75;1.30;;;18.30;99.90;;;;;;5042234;28;20046;-67
2022/07/05 08:34:04;;;;;;;3.50;1.30;;;18.30;99.90;;;;;;5045240;28;20050;-67
2022/07/05 08:36:30;;;;;;;4.50;1.40;;;18.30;99.90;;;;;;5047220;28;20041;-67
2022/07/05 08:38:56;;;;;;;5.10;1.75;;;18.30;99.90;;;;;;5034507;28;20052;-67
2022/07/05 08:41:22;;;;;;;2.90;1.20;;;18.40;99.90;;;;;;5037593;28;20087;-67
2022/07/05 08:43:51;;;;;;;3.85;2.03;;;18.50;99.90;;;;;;5029933;28;20053;-67
2022/07/05 08:46:18;;;;;;;7.13;1.70;;;18.50;99.90;;;;;;5039607;28;20033;-67
2022/07/05 08:48:47;;;;;;;3.42;1.27;;;18.30;99.90;;;;;;5011398;28;20129;-67
2022/07/05 08:51:13;;;;;;;5.80;1.73;;;18.20;99.90;;;;;;5026179;28;20045;-67
2022/07/05 08:53:41;;;;;;;4.13;1.40;;;18.20;99.90;;;;;;5042590;28;20060;-67
2022/07/05 08:56:11;;;;;;;3.78;1.10;;;18.30;99.90;;;;;;5042988;28;20057;-67
2022/07/05 08:58:38;;;;;;;3.40;1.23;;;18.50;99.90;;;;;;5035318;28;20034;-67
2022/07/05 09:01:05;;;;;;;3.78;1.15;;;18.70;99.90;;;;;;5044617;28;20049;-67
2022/07/05 09:03:38;;;;;;;2.75;1.10;;;18.90;99.90;;;;;;5041800;28;20060;-67
2022/07/05 09:06:08;;;;;;;5.97;1.23;;;19.00;99.90;;;;;;5034932;28;20052;-67
2022/07/05 09:08:39;;;;;;;4.55;1.25;;;19.00;99.90;;;;;;5040592;28;20136;-67
2022/07/05 09:11:05;;;;;;;5.38;1.10;;;19.10;99.90;;;;;;5039817;28;20038;-66
2022/07/05 09:13:40;;;;;;;3.72;1.05;;;19.10;99.90;;;;;;5048760;28;20056;-67
2022/07/05 09:16:06;;;;;;;2.95;1.27;;;19.10;99.90;;;;;;5031037;28;20132;-70
2022/07/05 09:18:38;;;;;;;3.25;1.38;;;19.10;99.90;;;;;;5045868;28;20103;-67
2022/07/05 09:21:19;;;;;;;5.13;1.42;;;19.10;99.90;;;;;;5024974;28;20042;-67
2022/07/05 09:23:54;;;;;;;9.90;1.63;;;19.20;99.90;;;;;;5047567;28;20049;-67
2022/07/05 09:26:19;;;;;;;3.55;0.90;;;19.30;99.90;;;;;;5040716;28;20053;-70
2022/07/05 09:28:55;;;;;;;3.40;1.13;;;19.10;99.90;;;;;;5052071;28;20049;-66
2022/07/05 09:31:35;;;;;;;2.83;1.17;;;19.00;99.90;;;;;;5038952;28;20100;-66
2022/07/05 09:34:05;;;;;;;3.28;1.73;;;18.80;99.90;;;;;;5032303;28;20071;-66
2022/07/05 09:36:51;;;;;;;3.17;0.98;;;18.70;99.90;;;;;;5052569;28;20100;-66
2022/07/05 09:39:33;;;;;;;2.33;1.02;;;18.70;99.90;;;;;;5039009;28;20049;-66
2022/07/05 09:42:13;;;;;;;4.05;1.40;;;18.80;99.90;;;;;;5045752;28;20058;-66
2022/07/05 09:44:44;;;;;;;5.10;1.02;;;19.00;99.90;;;;;;5044218;28;20053;-67
2022/07/05 09:47:12;;;;;;;2.70;1.20;;;19.10;99.90;;;;;;5040034;28;20050;-66
2022/07/05 09:49:43;;;;;;;3.38;1.08;;;19.00;99.90;;;;;;5044960;28;20041;-67
2022/07/05 09:52:10;;;;;;;3.38;1.00;;;19.10;99.90;;;;;;5044828;28;20052;-66
2022/07/05 09:54:35;;;;;;;4.20;1.30;;;19.10;99.90;;;;;;5045889;28;20053;-67
2022/07/05 09:57:01;;;;;;;2.38;1.00;;;19.20;99.90;;;;;;5040523;28;20064;-66
2022/07/05 09:59:27;;;;;;;4.63;1.23;;;19.10;99.90;;;;;;5044434;28;20053;-66
2022/07/05 10:01:53;;;;;;;6.82;1.60;;;19.10;99.90;;;;;;5045264;28;20068;-66
2022/07/05 10:04:19;;;;;;;5.28;1.38;;;19.10;99.90;;;;;;5046093;28;20049;-67
2022/07/05 10:06:45;;;;;;;3.53;1.38;;;19.00;99.90;;;;;;5035814;28;20068;-66
2022/07/05 10:09:11;;;;;;;3.97;1.27;;;19.00;99.90;;;;;;5041342;28;20056;-66
2022/07/05 10:11:43;;;;;;;2.15;1.00;;;19.10;99.90;;;;;;5039574;28;20038;-67
2022/07/05 10:14:16;;;;;;;2.70;1.15;;;19.40;99.90;;;;;;5046620;28;20513;-67
2022/07/05 10:16:47;;;;;;;5.50;1.63;;;19.60;99.90;;;;;;5032126;28;20096;-66
2022/07/05 10:19:18;;;;;;;3.35;1.30;;;19.50;99.90;;;;;;5065511;28;20048;-65
2022/07/05 10:21:45;;;;;;;3.97;1.17;;;19.40;99.90;;;;;;5044077;28;20056;-66
2022/07/05 10:24:12;;;;;;;3.70;1.27;;;19.30;99.90;;;;;;5064081;28;20078;-66
2022/07/05 10:26:39;;;;;;;2.78;1.20;;;19.20;99.90;;;;;;5038369;28;20072;-66
2022/07/05 10:29:06;;;;;;;5.53;1.63;;;19.10;99.90;;;;;;5043328;28;20072;-67
2022/07/05 10:31:32;;;;;;;4.82;1.10;;;19.10;99.90;;;;;;5045286;28;20041;-67
2022/07/05 10:34:07;;;;;;;4.35;1.40;;;19.00;99.90;;;;;;5063643;28;20047;-67
2022/07/05 10:36:34;;;;;;;3.78;1.10;;;19.00;99.90;;;;;;5064648;28;20378;-67
2022/07/05 10:39:00;;;;;;;2.55;1.10;;;18.90;99.90;;;;;;5043384;28;20064;-67
2022/07/05 10:41:29;;;;;;;2.60;1.35;;;19.00;99.90;;;;;;5042119;28;20049;-66
2022/07/05 10:43:57;;;;;;;5.38;1.60;;;19.10;99.90;;;;;;5025648;28;20060;-67
2022/07/05 10:46:43;;;;;;;3.93;1.73;;;19.10;99.90;;;;;;5062965;28;20100;-67
2022/07/05 10:49:15;;;;;;;3.20;1.08;;;19.30;99.90;;;;;;5044781;28;20084;-67
2022/07/05 10:51:41;;;;;;;5.93;1.75;;;19.10;99.90;;;;;;5064841;28;20102;-67
2022/07/05 10:54:07;;;;;;;4.40;1.20;;;19.10;99.90;;;;;;5027108;28;20555;-67
2022/07/05 10:56:33;;;;;;;3.08;1.20;;;19.40;99.90;;;;;;5062993;28;20047;-67
2022/07/05 10:59:11;;;;;;;2.70;1.20;;;19.50;99.90;;;;;;5043362;28;20041;-67
2022/07/05 11:01:41;;;;;;;4.57;1.67;;;19.60;99.90;;;;;;5042490;28;20099;-67
2022/07/05 11:04:19;;;;;;;6.90;1.23;;;19.60;99.90;;;;;;5044297;28;20056;-68
2022/07/05 11:06:49;;;;;;;3.35;1.27;;;19.40;99.90;;;;;;5047749;28;20052;-68
2022/07/05 11:09:17;;;;;;;5.53;1.30;;;19.20;99.90;;;;;;5058139;28;20060;-68
2022/07/05 11:11:52;;;;;;;5.55;1.83;;;19.10;99.90;;;;;;5045194;28;20049;-67
2022/07/05 11:14:21;;;;;;;4.45;1.27;;;18.90;99.90;;;;;;5042692;28;20057;-67
2022/07/05 11:16:48;;;;;;;3.63;1.43;;;18.70;99.90;;;;;;5056971;28;20540;-68
2022/07/05 11:19:17;;;;;;;5.72;1.83;;;18.90;99.90;;;;;;5028904;28;20046;-68
2022/07/05 11:22:07;;;;;;;4.38;1.45;;;18.90;99.90;;;;;;5042931;28;20052;-68
2022/07/05 11:24:34;;;;;;;3.60;1.30;;;19.00;99.90;;;;;;5065635;28;20048;-68
2022/07/05 11:27:02;;;;;;;4.32;1.42;;;18.90;99.90;;;;;;5059876;28;20056;-68
2022/07/05 11:29:44;;;;;;;25.63;2.75;;;18.90;99.90;;;;;;5060154;28;20052;-68
2022/07/05 11:32:15;;;;;;;4.22;1.27;;;18.80;99.90;;;;;;5063641;28;20087;-68
2022/07/05 11:34:42;;;;;;;5.85;1.60;;;18.70;99.90;;;;;;5055155;28;20052;-68
2022/07/05 11:37:14;;;;;;;2.95;1.10;;;18.60;99.90;;;;;;5075786;28;20060;-68
2022/07/05 11:39:44;;;;;;;3.70;1.50;;;18.60;99.90;;;;;;5065217;28;20037;-68
2022/07/05 11:42:10;;;;;;;;;;;18.40;99.90;;;;;;5060115;28;20049;-68
2022/07/05 11:44:36;;;;;;;4.68;1.50;;;18.30;99.90;;;;;;5057982;28;20328;-68
2022/07/05 11:47:03;;;;;;;4.55;1.55;;;18.30;99.90;;;;;;5056223;28;20047;-68
2022/07/05 11:49:29;;;;;;;5.05;1.60;;;18.40;99.90;;;;;;5076103;28;21545;-67
2022/07/05 11:52:03;;;;;;;4.50;2.03;;;18.70;99.90;;;;;;5054923;28;20060;-67
2022/07/05 11:54:31;;;;;;;5.70;1.58;;;19.10;99.90;;;;;;5060213;28;20684;-68
2022/07/05 11:56:57;;;;;;;4.07;1.40;;;19.50;99.90;;;;;;5063192;28;20041;-66
2022/07/05 11:59:24;;;;;;;3.20;1.27;;;19.70;99.90;;;;;;5043100;28;20120;-67
2022/07/05 12:01:51;;;;;;;5.05;1.58;;;19.80;99.90;;;;;;5059294;28;20045;-67
2022/07/05 12:04:25;;;;;;;9.05;1.92;;;20.00;99.90;;;;;;5049893;28;20119;-67
2022/07/05 12:06:50;;;;;;;5.28;1.75;;;20.10;99.90;;;;;;5044925;28;20076;-67
2022/07/05 12:09:22;;;;;;;4.47;1.80;;;20.10;99.90;;;;;;5058261;28;20053;-67
2022/07/05 12:14:50;;;;;;;4.10;1.50;;;20.10;99.90;;;;;;5039651;28;20060;-67
2022/07/05 12:17:18;;;;;;;2.35;1.30;;;19.90;99.90;;;;;;5049227;28;20039;-67
2022/07/05 12:19:47;;;;;;;2.00;1.15;;;19.80;99.90;;;;;;5045558;28;20064;-67
2022/07/05 12:22:14;;;;;;;3.90;1.33;;;19.60;99.90;;;;;;5028711;28;20171;-67
2022/07/05 12:24:40;;;;;;;5.15;1.63;;;19.70;99.90;;;;;;5043305;28;20065;-67
2022/07/05 12:27:09;;;;;;;3.78;1.05;;;19.80;99.90;;;;;;5043667;28;20100;-67
2022/07/05 12:29:35;;;;;;;2.70;1.07;;;20.20;99.90;;;;;;5051824;28;20111;-67
2022/07/05 12:32:08;;;;;;;4.10;1.27;;;20.30;99.90;;;;;;5058063;28;20048;-67
2022/07/05 12:34:34;;;;;;;3.63;1.00;;;20.50;99.90;;;;;;5039881;28;20053;-67
2022/07/05 12:37:00;;;;;;;4.25;1.38;;;20.60;99.90;;;;;;5040441;28;20075;-67
2022/07/05 12:39:26;;;;;;;2.53;0.90;;;20.70;99.90;;;;;;5037362;28;20122;-67
2022/07/05 12:41:52;;;;;;;4.50;1.20;;;20.80;99.90;;;;;;5043046;28;20056;-67
2022/07/05 12:44:21;;;;;;;4.78;0.90;;;20.80;99.90;;;;;;5036879;28;20049;-67
2022/07/05 12:46:49;;;;;;;2.10;0.70;;;20.90;99.90;;;;;;5059050;28;20046;-67
2022/07/05 12:49:15;;;;;;;5.07;1.10;;;21.00;99.90;;;;;;5057134;28;20076;-67
2022/07/05 12:51:42;;;;;;;4.45;1.08;;;21.20;99.90;;;;;;5033630;28;20057;-66